createdAt,value
2019-02-08T00:00:13.313Z,88.30
2019-02-08T00:01:08.003Z,88.20
2019-02-08T00:02:05.098Z,88.20
2019-02-08T00:03:07.749Z,88.20
2019-02-08T00:04:08.282Z,88.20
2019-02-08T00:05:05.308Z,88.10
2019-02-08T00:06:07.882Z,88.30
2019-02-08T00:07:05.942Z,88.30
2019-02-08T00:08:05.076Z,88.40
2019-02-08T00:09:07.670Z,88.40
2019-02-08T00:10:05.693Z,88.40
2019-02-08T00:11:08.361Z,88.40
2019-02-08T00:12:05.378Z,88.40
2019-02-08T00:13:05.505Z,88.40
2019-02-08T00:14:08.216Z,88.40
2019-02-08T00:15:05.794Z,88.40
2019-02-08T00:16:05.389Z,88.40
2019-02-08T00:17:08.065Z,88.50
2019-02-08T00:18:07.601Z,88.60
2019-02-08T00:19:05.621Z,88.60
2019-02-08T00:20:08.331Z,88.40
2019-02-08T00:21:05.530Z,88.40
2019-02-08T00:22:05.867Z,88.40
2019-02-08T00:23:05.198Z,88.40
2019-02-08T00:24:05.346Z,88.50
2019-02-08T00:25:05.446Z,88.40
2019-02-08T00:26:05.602Z,88.40
2019-02-08T00:27:08.361Z,88.40
2019-02-08T00:28:05.414Z,88.40
2019-02-08T00:29:05.555Z,88.40
2019-02-08T00:30:06.091Z,88.30
2019-02-08T00:31:05.660Z,88.40
2019-02-08T00:32:05.758Z,88.40
2019-02-08T00:33:08.369Z,88.60
2019-02-08T00:34:05.337Z,88.60
2019-02-08T00:35:05.408Z,88.50
2019-02-08T00:36:08.189Z,88.60
2019-02-08T00:37:12.789Z,88.50
2019-02-08T00:38:08.282Z,88.50
2019-02-08T00:39:05.606Z,88.50
2019-02-08T00:40:08.245Z,88.50
2019-02-08T00:41:07.764Z,88.40
2019-02-08T00:42:05.720Z,88.40
2019-02-08T00:43:08.308Z,88.60
2019-02-08T00:44:05.366Z,88.60
2019-02-08T00:45:05.982Z,88.60
2019-02-08T00:46:05.712Z,88.50
2019-02-08T00:47:07.669Z,88.50
2019-02-08T00:48:08.197Z,88.40
2019-02-08T00:49:05.150Z,88.40
2019-02-08T00:50:05.468Z,88.50
2019-02-08T00:51:08.455Z,88.70
2019-02-08T00:52:08.060Z,88.60
2019-02-08T00:53:07.625Z,88.80
2019-02-08T00:54:05.562Z,88.80
2019-02-08T00:55:05.729Z,89.00
2019-02-08T00:56:06.059Z,89.10
2019-02-08T00:57:05.279Z,89.10
2019-02-08T00:58:05.365Z,89.10
2019-02-08T00:59:05.444Z,89.10
2019-02-08T01:00:05.848Z,89.10
2019-02-08T01:01:05.228Z,89.20
2019-02-08T01:02:05.567Z,89.10
2019-02-08T01:03:05.848Z,89.10
2019-02-08T01:04:07.512Z,89.10
2019-02-08T01:05:07.952Z,89.00
2019-02-08T01:06:08.413Z,89.00
2019-02-08T01:07:05.851Z,89.20
2019-02-08T01:08:05.215Z,89.00
2019-02-08T01:09:07.948Z,89.10
2019-02-08T01:10:05.023Z,89.10
2019-02-08T01:11:05.113Z,89.00
2019-02-08T01:12:05.284Z,89.10
2019-02-08T01:13:08.014Z,89.10
2019-02-08T01:14:06.089Z,89.00
2019-02-08T01:15:05.687Z,89.00
2019-02-08T01:16:05.110Z,89.10
2019-02-08T01:17:05.273Z,89.10
2019-02-08T01:18:05.356Z,89.10
2019-02-08T01:19:08.031Z,89.10
2019-02-08T01:20:05.051Z,89.10
2019-02-08T01:21:07.722Z,89.20
2019-02-08T01:22:10.922Z,89.20
2019-02-08T01:23:06.067Z,89.20
2019-02-08T01:24:07.779Z,89.10
2019-02-08T01:25:05.799Z,89.10
2019-02-08T01:26:08.578Z,89.10
2019-02-08T01:27:05.581Z,89.10
2019-02-08T01:28:05.814Z,89.10
2019-02-08T01:29:05.941Z,89.10
2019-02-08T01:30:05.329Z,89.10
2019-02-08T01:31:07.953Z,89.10
2019-02-08T01:32:11.147Z,89.00
2019-02-08T01:33:07.688Z,89.00
2019-02-08T01:34:08.244Z,89.00
2019-02-08T01:35:05.212Z,89.00
2019-02-08T01:36:05.392Z,89.00
2019-02-08T01:37:05.521Z,89.00
2019-02-08T01:38:08.341Z,88.90
2019-02-08T01:39:05.371Z,88.90
2019-02-08T01:40:05.501Z,88.90
2019-02-08T01:41:05.579Z,88.90
2019-02-08T01:42:05.721Z,89.00
2019-02-08T01:43:08.325Z,88.80
2019-02-08T01:44:05.262Z,88.90
2019-02-08T01:45:05.204Z,88.90
2019-02-08T01:46:05.424Z,88.90
2019-02-08T01:47:05.543Z,88.80
2019-02-08T01:48:08.146Z,88.70
2019-02-08T01:49:05.151Z,88.60
2019-02-08T01:50:05.746Z,88.60
2019-02-08T01:51:08.986Z,88.60
2019-02-08T01:52:05.950Z,88.60
2019-02-08T01:53:05.206Z,88.50
2019-02-08T01:54:07.812Z,88.50
2019-02-08T01:55:05.771Z,88.50
2019-02-08T01:56:11.004Z,88.30
2019-02-08T01:57:05.162Z,88.40
2019-02-08T01:58:10.423Z,88.20
2019-02-08T01:59:07.979Z,88.30
2019-02-08T02:00:06.051Z,88.30
2019-02-08T02:01:05.242Z,88.30
2019-02-08T02:02:05.416Z,88.20
2019-02-08T02:03:05.493Z,88.10
2019-02-08T02:04:08.177Z,88.10
2019-02-08T02:05:05.165Z,88.00
2019-02-08T02:06:05.248Z,87.90
2019-02-08T02:07:05.479Z,88.10
2019-02-08T02:08:05.606Z,88.00
2019-02-08T02:09:05.703Z,88.00
2019-02-08T02:10:05.793Z,87.90
2019-02-08T02:11:05.852Z,87.90
2019-02-08T02:12:08.402Z,87.90
2019-02-08T02:13:05.459Z,87.90
2019-02-08T02:14:05.597Z,87.80
2019-02-08T02:15:05.801Z,87.80
2019-02-08T02:16:06.002Z,87.70
2019-02-08T02:17:05.160Z,87.70
2019-02-08T02:18:05.321Z,87.50
2019-02-08T02:19:05.384Z,87.50
2019-02-08T02:20:07.973Z,87.50
2019-02-08T02:21:08.388Z,87.50
2019-02-08T02:22:07.753Z,87.40
2019-02-08T02:23:05.695Z,87.40
2019-02-08T02:24:05.869Z,87.40
2019-02-08T02:25:08.557Z,87.40
2019-02-08T02:26:05.527Z,87.40
2019-02-08T02:27:05.575Z,87.40
2019-02-08T02:28:05.730Z,87.40
2019-02-08T02:29:05.953Z,87.40
2019-02-08T02:30:05.258Z,87.40
2019-02-08T02:31:07.865Z,87.30
2019-02-08T02:32:05.953Z,87.20
2019-02-08T02:33:05.065Z,87.20
2019-02-08T02:34:05.134Z,87.20
2019-02-08T02:35:05.241Z,87.20
2019-02-08T02:36:08.041Z,87.10
2019-02-08T02:37:05.018Z,87.10
2019-02-08T02:38:05.112Z,87.10
2019-02-08T02:39:05.216Z,87.00
2019-02-08T02:40:05.321Z,87.00
2019-02-08T02:41:05.604Z,87.00
2019-02-08T02:42:08.268Z,86.90
2019-02-08T02:43:05.433Z,86.80
2019-02-08T02:44:08.079Z,86.70
2019-02-08T02:45:05.054Z,86.70
2019-02-08T02:46:07.795Z,86.60
2019-02-08T02:47:08.257Z,86.60
2019-02-08T02:48:07.792Z,86.60
2019-02-08T02:49:05.820Z,86.60
2019-02-08T02:50:08.407Z,86.50
2019-02-08T02:51:07.969Z,86.50
2019-02-08T02:52:07.541Z,86.50
2019-02-08T02:53:05.692Z,86.50
2019-02-08T02:54:08.314Z,86.40
2019-02-08T02:55:05.271Z,86.40
2019-02-08T02:56:05.583Z,86.40
2019-02-08T02:57:05.699Z,86.30
2019-02-08T02:58:05.789Z,86.30
2019-02-08T02:59:05.853Z,86.20
2019-02-08T03:00:08.625Z,86.20
2019-02-08T03:01:08.112Z,86.10
2019-02-08T03:02:07.601Z,86.00
2019-02-08T03:03:05.637Z,86.00
2019-02-08T03:04:05.798Z,85.90
2019-02-08T03:05:05.841Z,85.90
2019-02-08T03:06:05.969Z,85.70
2019-02-08T03:07:05.050Z,85.90
2019-02-08T03:08:12.815Z,85.70
2019-02-08T03:09:10.841Z,85.70
2019-02-08T03:10:08.295Z,85.70
2019-02-08T03:11:07.858Z,85.70
2019-02-08T03:12:08.319Z,85.80
2019-02-08T03:13:07.800Z,85.80
2019-02-08T03:14:05.759Z,85.80
2019-02-08T03:15:05.858Z,85.80
2019-02-08T03:16:07.594Z,85.70
2019-02-08T03:17:05.814Z,85.80
2019-02-08T03:18:05.956Z,85.70
2019-02-08T03:19:07.522Z,85.90
2019-02-08T03:20:05.543Z,85.80
2019-02-08T03:21:05.695Z,85.90
2019-02-08T03:22:10.942Z,85.90
2019-02-08T03:23:07.520Z,86.00
2019-02-08T03:24:13.269Z,85.90
2019-02-08T03:25:05.323Z,85.90
2019-02-08T03:26:08.664Z,86.00
2019-02-08T03:27:05.781Z,86.00
2019-02-08T03:28:05.676Z,86.10
2019-02-08T03:29:05.995Z,86.10
2019-02-08T03:30:07.759Z,86.10
2019-02-08T03:31:05.745Z,86.10
2019-02-08T03:32:05.853Z,86.10
2019-02-08T03:33:06.037Z,86.30
2019-02-08T03:34:05.181Z,86.30
2019-02-08T03:35:05.446Z,86.40
2019-02-08T03:36:05.589Z,86.50
2019-02-08T03:37:05.712Z,86.50
2019-02-08T03:38:07.492Z,86.60
2019-02-08T03:39:05.504Z,86.60
2019-02-08T03:40:08.227Z,86.70
2019-02-08T03:41:05.336Z,86.70
2019-02-08T03:42:05.559Z,86.70
2019-02-08T03:43:05.799Z,86.70
2019-02-08T03:44:05.990Z,86.70
2019-02-08T03:45:05.138Z,86.80
2019-02-08T03:46:07.991Z,86.70
2019-02-08T03:47:05.027Z,86.70
2019-02-08T03:48:05.242Z,86.80
2019-02-08T03:49:05.351Z,86.80
2019-02-08T03:50:05.478Z,86.80
2019-02-08T03:51:05.551Z,86.90
2019-02-08T03:52:05.690Z,86.90
2019-02-08T03:53:08.560Z,87.10
2019-02-08T03:54:08.184Z,87.10
2019-02-08T03:55:05.210Z,87.10
2019-02-08T03:56:05.340Z,87.10
2019-02-08T03:57:08.064Z,87.10
2019-02-08T03:58:05.079Z,87.10
2019-02-08T03:59:05.185Z,87.10
2019-02-08T04:00:05.278Z,87.20
2019-02-08T04:01:07.907Z,87.20
2019-02-08T04:02:05.801Z,87.20
2019-02-08T04:03:08.556Z,87.10
2019-02-08T04:04:08.184Z,87.10
2019-02-08T04:05:05.131Z,87.10
2019-02-08T04:06:10.237Z,87.10
2019-02-08T04:07:05.179Z,87.10
2019-02-08T04:08:07.783Z,87.00
2019-02-08T04:09:05.775Z,87.00
2019-02-08T04:10:05.840Z,87.00
2019-02-08T04:11:06.051Z,86.90
2019-02-08T04:12:10.184Z,86.90
2019-02-08T04:13:05.150Z,86.90
2019-02-08T04:14:05.315Z,86.90
2019-02-08T04:15:05.433Z,86.90
2019-02-08T04:16:08.009Z,86.90
2019-02-08T04:17:10.325Z,86.90
2019-02-08T04:18:05.375Z,86.90
2019-02-08T04:19:05.553Z,86.90
2019-02-08T04:20:05.728Z,86.90
2019-02-08T04:21:06.131Z,86.90
2019-02-08T04:22:05.214Z,87.00
2019-02-08T04:23:05.290Z,87.00
2019-02-08T04:24:07.974Z,87.00
2019-02-08T04:25:06.019Z,87.00
2019-02-08T04:26:05.150Z,87.00
2019-02-08T04:27:05.386Z,87.00
2019-02-08T04:28:05.480Z,87.00
2019-02-08T04:29:05.601Z,87.10
2019-02-08T04:30:07.570Z,87.10
2019-02-08T04:31:05.539Z,87.10
2019-02-08T04:32:05.607Z,87.10
2019-02-08T04:33:13.468Z,87.10
2019-02-08T04:34:07.947Z,87.10
2019-02-08T04:35:05.970Z,87.10
2019-02-08T04:36:07.600Z,87.10
2019-02-08T04:37:05.550Z,87.10
2019-02-08T04:38:05.751Z,87.10
2019-02-08T04:39:05.853Z,87.10
2019-02-08T04:40:05.945Z,87.10
2019-02-08T04:41:07.513Z,87.20
2019-02-08T04:42:08.034Z,87.10
2019-02-08T04:43:11.152Z,87.20
2019-02-08T04:44:05.165Z,87.20
2019-02-08T04:45:05.406Z,87.20
2019-02-08T04:46:08.053Z,87.10
2019-02-08T04:47:07.538Z,87.20
2019-02-08T04:48:08.017Z,87.20
2019-02-08T04:49:08.580Z,87.10
2019-02-08T04:50:05.587Z,87.10
2019-02-08T04:51:05.663Z,87.20
2019-02-08T04:52:05.723Z,87.20
2019-02-08T04:53:08.423Z,87.10
2019-02-08T04:54:05.468Z,87.10
2019-02-08T04:55:05.530Z,87.10
2019-02-08T04:56:05.659Z,87.00
2019-02-08T04:57:05.770Z,87.00
2019-02-08T04:58:05.868Z,87.00
2019-02-08T04:59:05.415Z,87.00
2019-02-08T05:00:05.550Z,87.00
2019-02-08T05:01:05.104Z,87.00
2019-02-08T05:02:05.218Z,87.10
2019-02-08T05:03:07.954Z,87.10
2019-02-08T05:04:06.058Z,87.10
2019-02-08T05:05:07.694Z,87.00
2019-02-08T05:06:05.732Z,87.10
2019-02-08T05:07:05.963Z,87.10
2019-02-08T05:08:05.204Z,87.10
2019-02-08T05:09:05.378Z,87.10
2019-02-08T05:10:08.039Z,87.20
2019-02-08T05:11:05.050Z,87.20
2019-02-08T05:12:07.665Z,87.20
2019-02-08T05:13:05.567Z,87.20
2019-02-08T05:14:08.265Z,87.20
2019-02-08T05:15:05.254Z,87.20
2019-02-08T05:16:07.827Z,87.40
2019-02-08T05:17:05.793Z,87.40
2019-02-08T05:18:08.433Z,87.30
2019-02-08T05:19:05.354Z,87.40
2019-02-08T05:20:05.549Z,87.50
2019-02-08T05:21:10.730Z,87.50
2019-02-08T05:22:10.735Z,87.40
2019-02-08T05:23:05.782Z,87.40
2019-02-08T05:24:05.967Z,87.40
2019-02-08T05:25:07.973Z,87.40
2019-02-08T05:26:05.003Z,87.40
2019-02-08T05:27:05.215Z,87.40
2019-02-08T05:28:07.867Z,87.30
2019-02-08T05:29:08.525Z,87.30
2019-02-08T05:30:05.310Z,87.30
2019-02-08T05:31:05.433Z,87.30
2019-02-08T05:32:05.575Z,87.30
2019-02-08T05:33:08.341Z,87.40
2019-02-08T05:34:07.879Z,87.50
2019-02-08T05:35:05.970Z,87.40
2019-02-08T05:36:05.631Z,87.50
2019-02-08T05:37:05.747Z,87.50
2019-02-08T05:38:05.178Z,87.50
2019-02-08T05:39:05.233Z,87.50
2019-02-08T05:40:07.804Z,87.50
2019-02-08T05:41:08.357Z,87.50
2019-02-08T05:42:05.267Z,87.50
2019-02-08T05:43:05.380Z,87.50
2019-02-08T05:44:05.471Z,87.60
2019-02-08T05:45:05.549Z,87.60
2019-02-08T05:46:05.820Z,87.70
2019-02-08T05:47:05.888Z,87.70
2019-02-08T05:48:05.874Z,87.80
2019-02-08T05:49:05.009Z,87.90
2019-02-08T05:50:12.741Z,87.90
2019-02-08T05:51:05.827Z,87.90
2019-02-08T05:52:06.435Z,87.90
2019-02-08T05:53:08.223Z,87.90
2019-02-08T05:54:05.316Z,87.90
2019-02-08T05:55:08.035Z,87.90
2019-02-08T05:56:06.055Z,87.90
2019-02-08T05:57:10.285Z,87.90
2019-02-08T05:58:07.866Z,87.90
2019-02-08T05:59:08.501Z,87.90
2019-02-08T06:00:08.144Z,87.80
2019-02-08T06:01:05.094Z,87.90
2019-02-08T06:02:07.647Z,87.90
2019-02-08T06:03:08.181Z,87.90
2019-02-08T06:04:07.629Z,87.90
2019-02-08T06:05:05.688Z,87.90
2019-02-08T06:06:08.312Z,87.90
2019-02-08T06:07:05.350Z,87.90
2019-02-08T06:08:05.512Z,87.90
2019-02-08T06:09:08.135Z,87.90
2019-02-08T06:10:05.087Z,87.80
2019-02-08T06:11:05.215Z,87.80
2019-02-08T06:12:05.236Z,87.80
2019-02-08T06:13:05.316Z,87.80
2019-02-08T06:14:07.998Z,87.80
2019-02-08T06:15:07.660Z,87.90
2019-02-08T06:16:05.655Z,87.80
2019-02-08T06:17:05.783Z,87.80
2019-02-08T06:18:08.384Z,87.80
2019-02-08T06:19:07.949Z,87.70
2019-02-08T06:20:08.405Z,87.70
2019-02-08T06:21:05.408Z,87.70
2019-02-08T06:22:05.494Z,87.70
2019-02-08T06:23:05.727Z,87.70
2019-02-08T06:24:05.919Z,87.70
2019-02-08T06:25:05.289Z,87.70
2019-02-08T06:26:05.387Z,87.70
2019-02-08T06:27:05.405Z,87.70
2019-02-08T06:28:10.565Z,87.70
2019-02-08T06:29:05.509Z,87.70
2019-02-08T06:30:07.697Z,87.70
2019-02-08T06:31:05.700Z,87.70
2019-02-08T06:32:05.786Z,87.70
2019-02-08T06:33:08.551Z,87.80
2019-02-08T06:34:05.518Z,87.80
2019-02-08T06:35:08.089Z,87.90
2019-02-08T06:36:05.005Z,87.90
2019-02-08T06:37:05.422Z,87.90
2019-02-08T06:38:05.577Z,87.90
2019-02-08T06:39:05.638Z,87.90
2019-02-08T06:40:08.395Z,87.80
2019-02-08T06:41:05.282Z,87.70
2019-02-08T06:42:07.879Z,87.70
2019-02-08T06:43:08.442Z,87.80
2019-02-08T06:44:08.020Z,87.80
2019-02-08T06:45:05.193Z,87.70
2019-02-08T06:46:07.938Z,87.70
2019-02-08T06:47:05.999Z,87.80
2019-02-08T06:48:07.591Z,87.70
2019-02-08T06:49:05.517Z,87.70
2019-02-08T06:50:05.610Z,87.70
2019-02-08T06:51:05.723Z,87.70
2019-02-08T06:52:08.343Z,87.70
2019-02-08T06:53:05.302Z,87.70
2019-02-08T06:54:05.390Z,87.70
2019-02-08T06:55:11.318Z,87.70
2019-02-08T06:56:08.037Z,87.70
2019-02-08T06:57:08.593Z,87.70
2019-02-08T06:58:05.659Z,87.60
2019-02-08T06:59:08.222Z,87.60
2019-02-08T07:00:05.118Z,87.60
2019-02-08T07:01:07.856Z,87.60
2019-02-08T07:02:08.570Z,87.60
2019-02-08T07:03:08.121Z,87.60
2019-02-08T07:04:07.739Z,87.60
2019-02-08T07:05:05.764Z,87.60
2019-02-08T07:06:08.507Z,87.50
2019-02-08T07:07:05.472Z,87.50
2019-02-08T07:08:05.543Z,87.50
2019-02-08T07:09:05.602Z,87.50
2019-02-08T07:10:10.761Z,87.40
2019-02-08T07:11:05.688Z,87.50
2019-02-08T07:12:05.825Z,87.40
2019-02-08T07:13:05.904Z,87.40
2019-02-08T07:14:06.074Z,87.40
2019-02-08T07:15:05.226Z,87.40
2019-02-08T07:16:07.779Z,87.40
2019-02-08T07:17:05.770Z,87.40
2019-02-08T07:18:05.829Z,87.40
2019-02-08T07:19:05.909Z,87.40
2019-02-08T07:20:04.968Z,87.40
2019-02-08T07:21:07.577Z,87.40
2019-02-08T07:22:05.622Z,87.40
2019-02-08T07:23:08.381Z,87.40
2019-02-08T07:24:05.397Z,87.30
2019-02-08T07:25:08.117Z,87.30
2019-02-08T07:26:05.239Z,87.30
2019-02-08T07:27:05.342Z,87.40
2019-02-08T07:28:05.465Z,87.40
2019-02-08T07:29:08.129Z,87.30
2019-02-08T07:30:05.137Z,87.30
2019-02-08T07:31:05.317Z,87.40
2019-02-08T07:32:08.050Z,87.30
2019-02-08T07:33:05.222Z,87.30
2019-02-08T07:34:10.566Z,87.30
2019-02-08T07:35:05.656Z,87.20
2019-02-08T07:36:08.390Z,87.10
2019-02-08T07:37:05.537Z,87.10
2019-02-08T07:38:05.667Z,87.00
2019-02-08T07:39:05.824Z,86.90
2019-02-08T07:40:05.995Z,87.00
2019-02-08T07:41:05.153Z,86.90
2019-02-08T07:42:07.813Z,86.90
2019-02-08T07:43:05.800Z,86.90
2019-02-08T07:44:05.946Z,86.90
2019-02-08T07:45:05.146Z,87.00
2019-02-08T07:46:05.290Z,86.90
2019-02-08T07:47:05.400Z,87.00
2019-02-08T07:48:08.102Z,86.60
2019-02-08T07:49:05.028Z,86.60
2019-02-08T07:50:05.081Z,86.40
2019-02-08T07:51:07.715Z,86.20
2019-02-08T07:52:05.716Z,86.20
2019-02-08T07:53:08.404Z,86.10
2019-02-08T07:54:05.344Z,86.10
2019-02-08T07:55:08.080Z,86.00
2019-02-08T07:56:07.520Z,86.10
2019-02-08T07:57:05.482Z,86.10
2019-02-08T07:58:08.177Z,86.10
2019-02-08T07:59:07.602Z,86.40
2019-02-08T08:00:05.544Z,86.30
2019-02-08T08:01:08.117Z,86.50
2019-02-08T08:02:05.442Z,86.50
2019-02-08T08:03:08.108Z,86.30
2019-02-08T08:04:07.708Z,86.20
2019-02-08T08:05:05.702Z,86.20
2019-02-08T08:06:08.441Z,86.00
2019-02-08T08:07:05.486Z,85.90
2019-02-08T08:08:05.649Z,85.70
2019-02-08T08:09:05.741Z,85.50
2019-02-08T08:10:04.976Z,85.30
2019-02-08T08:11:05.106Z,85.00
2019-02-08T08:12:05.316Z,84.60
2019-02-08T08:13:05.635Z,84.10
2019-02-08T08:14:05.925Z,83.90
2019-02-08T08:15:05.068Z,83.80
2019-02-08T08:16:05.105Z,83.60
2019-02-08T08:17:07.805Z,83.70
2019-02-08T08:18:05.929Z,83.70
2019-02-08T08:19:05.165Z,83.70
2019-02-08T08:20:05.293Z,83.50
2019-02-08T08:21:05.460Z,83.40
2019-02-08T08:22:05.624Z,83.40
2019-02-08T08:23:05.838Z,83.30
2019-02-08T08:24:07.589Z,83.30
2019-02-08T08:25:05.533Z,83.40
2019-02-08T08:26:05.718Z,83.40
2019-02-08T08:27:08.549Z,83.50
2019-02-08T08:28:05.514Z,83.50
2019-02-08T08:29:05.589Z,83.50
2019-02-08T08:30:08.585Z,83.60
2019-02-08T08:31:05.704Z,83.60
2019-02-08T08:32:08.345Z,83.70
2019-02-08T08:33:07.829Z,83.90
2019-02-08T08:34:05.944Z,83.90
2019-02-08T08:35:05.054Z,83.80
2019-02-08T08:36:07.696Z,83.90
2019-02-08T08:37:05.298Z,84.00
2019-02-08T08:38:07.955Z,84.10
2019-02-08T08:39:06.061Z,84.10
2019-02-08T08:40:05.202Z,84.10
2019-02-08T08:41:08.018Z,84.10
2019-02-08T08:42:08.609Z,83.90
2019-02-08T08:43:05.611Z,83.90
2019-02-08T08:44:05.683Z,84.00
2019-02-08T08:45:08.302Z,83.40
2019-02-08T08:46:07.884Z,83.20
2019-02-08T08:47:08.341Z,83.10
2019-02-08T08:48:07.897Z,82.90
2019-02-08T08:49:08.544Z,82.70
2019-02-08T08:50:05.509Z,82.70
2019-02-08T08:51:08.432Z,82.30
2019-02-08T08:52:10.566Z,82.40
2019-02-08T08:53:05.489Z,82.40
2019-02-08T08:54:08.166Z,82.50
2019-02-08T08:55:05.181Z,82.40
2019-02-08T08:56:05.259Z,82.40
2019-02-08T08:57:07.872Z,82.30
2019-02-08T08:58:08.458Z,82.20
2019-02-08T08:59:05.447Z,82.20
2019-02-08T09:00:04.997Z,81.90
2019-02-08T09:01:05.068Z,81.60
2019-02-08T09:02:05.156Z,81.40
2019-02-08T09:03:05.278Z,81.10
2019-02-08T09:04:07.939Z,81.10
2019-02-08T09:05:08.577Z,81.20
2019-02-08T09:06:09.282Z,81.20
2019-02-08T09:07:05.341Z,81.10
2019-02-08T09:08:05.554Z,80.90
2019-02-08T09:09:10.753Z,80.70
2019-02-08T09:10:05.646Z,80.70
2019-02-08T09:11:08.519Z,80.60
2019-02-08T09:12:05.680Z,80.60
2019-02-08T09:13:05.783Z,80.70
2019-02-08T09:14:08.358Z,80.80
2019-02-08T09:15:07.840Z,80.90
2019-02-08T09:16:05.884Z,80.70
2019-02-08T09:17:05.028Z,80.90
2019-02-08T09:18:05.027Z,80.90
2019-02-08T09:19:05.136Z,80.90
2019-02-08T09:20:08.086Z,80.70
2019-02-08T09:21:07.601Z,80.60
2019-02-08T09:22:05.626Z,80.60
2019-02-08T09:23:05.667Z,80.50
2019-02-08T09:24:05.871Z,80.50
2019-02-08T09:25:08.523Z,80.50
2019-02-08T09:26:05.471Z,80.50
2019-02-08T09:27:05.645Z,80.50
2019-02-08T09:28:08.542Z,80.50
2019-02-08T09:29:05.444Z,80.50
2019-02-08T09:30:05.199Z,80.50
2019-02-08T09:31:05.406Z,80.70
2019-02-08T09:32:08.080Z,80.80
2019-02-08T09:33:05.044Z,80.90
2019-02-08T09:34:10.458Z,80.70
2019-02-08T09:35:05.390Z,80.70
2019-02-08T09:36:05.484Z,80.60
2019-02-08T09:37:05.705Z,80.40
2019-02-08T09:38:05.776Z,80.30
2019-02-08T09:39:05.834Z,80.30
2019-02-08T09:40:06.057Z,80.20
2019-02-08T09:41:05.286Z,80.00
2019-02-08T09:42:05.410Z,80.00
2019-02-08T09:43:05.564Z,79.90
2019-02-08T09:44:05.576Z,79.90
2019-02-08T09:45:05.684Z,80.00
2019-02-08T09:46:10.926Z,79.90
2019-02-08T09:47:06.012Z,79.90
2019-02-08T09:48:05.146Z,79.90
2019-02-08T09:49:05.240Z,80.00
2019-02-08T09:50:07.820Z,80.20
2019-02-08T09:51:08.389Z,80.20
2019-02-08T09:52:05.378Z,80.20
2019-02-08T09:53:05.420Z,80.20
2019-02-08T09:54:05.510Z,80.40
2019-02-08T09:55:08.131Z,80.40
2019-02-08T09:56:05.222Z,80.50
2019-02-08T09:57:07.941Z,80.50
2019-02-08T09:58:05.882Z,80.50
2019-02-08T09:59:11.017Z,80.50
2019-02-08T10:00:08.546Z,80.50
2019-02-08T10:01:05.472Z,80.50
2019-02-08T10:02:05.552Z,80.50
2019-02-08T10:03:05.630Z,80.60
2019-02-08T10:04:05.757Z,80.50
2019-02-08T10:05:08.105Z,80.40
2019-02-08T10:06:05.118Z,80.40
2019-02-08T10:07:07.729Z,80.50
2019-02-08T10:08:05.680Z,80.50
2019-02-08T10:09:06.015Z,80.50
2019-02-08T10:10:05.212Z,80.60
2019-02-08T10:11:05.350Z,80.60
2019-02-08T10:12:08.214Z,80.70
2019-02-08T10:13:07.825Z,80.80
2019-02-08T10:14:06.004Z,80.80
2019-02-08T10:15:07.598Z,80.80
2019-02-08T10:16:05.445Z,80.70
2019-02-08T10:17:05.568Z,80.80
2019-02-08T10:18:08.151Z,80.60
2019-02-08T10:19:07.684Z,80.60
2019-02-08T10:20:05.753Z,80.70
2019-02-08T10:21:05.834Z,80.60
2019-02-08T10:22:06.058Z,80.60
2019-02-08T10:23:07.715Z,80.60
2019-02-08T10:24:08.210Z,80.70
2019-02-08T10:25:05.158Z,80.70
2019-02-08T10:26:05.977Z,80.60
2019-02-08T10:27:05.043Z,80.50
2019-02-08T10:28:05.072Z,80.50
2019-02-08T10:29:10.326Z,80.50
2019-02-08T10:30:05.782Z,80.50
2019-02-08T10:31:05.919Z,80.50
2019-02-08T10:32:05.003Z,80.50
2019-02-08T10:33:05.048Z,80.50
2019-02-08T10:34:05.077Z,80.50
2019-02-08T10:35:05.131Z,80.40
2019-02-08T10:36:07.857Z,80.40
2019-02-08T10:37:05.860Z,80.40
2019-02-08T10:38:08.643Z,80.40
2019-02-08T10:39:08.344Z,80.40
2019-02-08T10:40:07.827Z,80.50
2019-02-08T10:41:05.739Z,80.50
2019-02-08T10:42:05.834Z,80.60
2019-02-08T10:43:05.055Z,80.50
2019-02-08T10:44:05.101Z,80.50
2019-02-08T10:45:05.296Z,80.50
2019-02-08T10:46:05.432Z,80.40
2019-02-08T10:47:05.485Z,80.40
2019-02-08T10:48:05.553Z,29.20
2019-02-08T10:49:05.748Z,80.40
2019-02-08T10:50:05.793Z,80.50
2019-02-08T10:51:05.917Z,80.50
2019-02-08T10:52:05.448Z,80.50
2019-02-08T10:53:06.069Z,80.50
2019-02-08T10:54:05.149Z,80.50
2019-02-08T10:55:05.333Z,80.40
2019-02-08T10:56:15.351Z,80.50
2019-02-08T10:57:05.478Z,80.40
2019-02-08T10:58:05.598Z,80.40
2019-02-08T10:59:05.777Z,80.40
2019-02-08T11:00:08.582Z,80.10
2019-02-08T11:01:05.581Z,80.20
2019-02-08T11:02:05.926Z,80.20
2019-02-08T11:03:07.508Z,80.20
2019-02-08T11:04:05.480Z,80.20
2019-02-08T11:05:08.068Z,80.20
2019-02-08T11:06:12.688Z,80.20
2019-02-08T11:07:08.173Z,80.10
2019-02-08T11:08:05.087Z,80.10
2019-02-08T11:09:05.311Z,80.10
2019-02-08T11:10:07.971Z,80.20
2019-02-08T11:11:05.932Z,80.20
2019-02-08T11:12:07.616Z,80.40
2019-02-08T11:13:05.539Z,80.40
2019-02-08T11:14:05.678Z,80.50
2019-02-08T11:15:05.777Z,80.40
2019-02-08T11:16:05.853Z,80.30
2019-02-08T11:17:06.060Z,80.20
2019-02-08T11:18:05.666Z,80.20
2019-02-08T11:19:05.765Z,80.00
2019-02-08T11:20:05.792Z,79.90
2019-02-08T11:21:05.893Z,79.90
2019-02-08T11:22:07.471Z,79.70
2019-02-08T11:23:07.939Z,79.50
2019-02-08T11:24:05.919Z,79.50
2019-02-08T11:25:07.469Z,79.70
2019-02-08T11:26:05.411Z,79.70
2019-02-08T11:27:05.615Z,79.70
2019-02-08T11:28:08.243Z,79.50
2019-02-08T11:29:05.252Z,79.50
2019-02-08T11:30:15.869Z,79.40
2019-02-08T11:31:05.956Z,79.40
2019-02-08T11:32:05.146Z,79.20
2019-02-08T11:33:07.760Z,79.00
2019-02-08T11:34:05.676Z,79.00
2019-02-08T11:35:05.759Z,78.60
2019-02-08T11:36:05.820Z,78.50
2019-02-08T11:37:08.486Z,78.20
2019-02-08T11:38:07.906Z,78.00
2019-02-08T11:39:08.535Z,77.60
2019-02-08T11:40:08.078Z,77.60
2019-02-08T11:41:05.121Z,77.60
2019-02-08T11:42:05.266Z,77.70
2019-02-08T11:43:05.320Z,77.70
2019-02-08T11:44:05.327Z,77.50
2019-02-08T11:45:05.427Z,77.30
2019-02-08T11:46:05.676Z,77.20
2019-02-08T11:47:05.747Z,77.10
2019-02-08T11:48:05.779Z,76.90
2019-02-08T11:49:07.719Z,76.80
2019-02-08T11:50:08.313Z,76.50
2019-02-08T11:51:13.003Z,76.20
2019-02-08T11:52:05.061Z,76.20
2019-02-08T11:53:05.112Z,76.30
2019-02-08T11:54:05.171Z,76.30
2019-02-08T11:55:05.382Z,76.40
2019-02-08T11:56:05.547Z,76.30
2019-02-08T11:57:05.717Z,76.20
2019-02-08T11:58:08.383Z,76.30
2019-02-08T11:59:07.857Z,76.30
2019-02-08T12:00:05.774Z,76.30
2019-02-08T12:01:11.067Z,76.30
2019-02-08T12:02:05.153Z,76.20
2019-02-08T12:03:05.290Z,76.30
2019-02-08T12:04:05.394Z,76.10
2019-02-08T12:05:05.418Z,75.90
2019-02-08T12:06:05.498Z,75.70
2019-02-08T12:07:08.053Z,75.70
2019-02-08T12:08:10.204Z,75.70
2019-02-08T12:09:05.315Z,75.70
2019-02-08T12:10:07.965Z,75.60
2019-02-08T12:11:08.522Z,75.60
2019-02-08T12:12:07.959Z,75.60
2019-02-08T12:13:05.928Z,75.60
2019-02-08T12:14:05.171Z,75.70
2019-02-08T12:15:07.952Z,75.50
2019-02-08T12:16:05.935Z,75.50
2019-02-08T12:17:05.047Z,75.40
2019-02-08T12:18:05.127Z,75.50
2019-02-08T12:19:05.250Z,75.40
2019-02-08T12:20:05.518Z,75.40
2019-02-08T12:21:05.627Z,75.30
2019-02-08T12:22:05.714Z,75.20
2019-02-08T12:23:05.951Z,75.00
2019-02-08T12:24:05.016Z,74.80
2019-02-08T12:25:05.147Z,75.10
2019-02-08T12:26:05.370Z,75.00
2019-02-08T12:27:10.606Z,75.10
2019-02-08T12:28:05.601Z,75.10
2019-02-08T12:29:08.177Z,75.00
2019-02-08T12:30:07.637Z,74.80
2019-02-08T12:31:05.726Z,74.80
2019-02-08T12:32:05.829Z,74.70
2019-02-08T12:33:05.945Z,74.20
2019-02-08T12:34:07.580Z,74.00
2019-02-08T12:35:08.028Z,74.00
2019-02-08T12:36:05.028Z,74.00
2019-02-08T12:37:05.119Z,73.80
2019-02-08T12:38:07.710Z,73.70
2019-02-08T12:39:05.706Z,73.70
2019-02-08T12:40:06.047Z,73.70
2019-02-08T12:41:10.208Z,73.90
2019-02-08T12:42:05.506Z,73.80
2019-02-08T12:43:08.115Z,73.30
2019-02-08T12:44:07.649Z,73.10
2019-02-08T12:45:05.646Z,73.10
2019-02-08T12:46:05.809Z,73.00
2019-02-08T12:47:05.355Z,72.90
2019-02-08T12:48:10.659Z,72.60
2019-02-08T12:49:08.268Z,72.70
2019-02-08T12:50:05.213Z,72.80
2019-02-08T12:51:07.838Z,72.60
2019-02-08T12:52:08.365Z,72.50